sensor_id;sensor_type;location;lat;lon;timestamp;pressure;altitude;pressure_sealevel;temperature;humidity
13420;BME280;6781;58.440;15.470;2023-12-22T00:01:26;99819.75;;;0.27;100.00
13420;BME280;6781;58.440;15.470;2023-12-22T00:03:52;99824.16;;;0.24;100.00
13420;BME280;6781;58.440;15.470;2023-12-22T00:06:21;99816.66;;;0.21;100.00
13420;BME280;6781;58.440;15.470;2023-12-22T00:08:47;99826.78;;;0.22;100.00
13420;BME280;6781;58.440;15.470;2023-12-22T00:11:14;99830.91;;;0.25;100.00
13420;BME280;6781;58.440;15.470;2023-12-22T00:13:41;99823.50;;;0.20;100.00
13420;BME280;6781;58.440;15.470;2023-12-22T00:16:08;99839.53;;;0.22;100.00
13420;BME280;6781;58.440;15.470;2023-12-22T00:18:36;99843.06;;;0.20;100.00
13420;BME280;6781;58.440;15.470;2023-12-22T00:21:03;99858.34;;;0.20;100.00
13420;BME280;6781;58.440;15.470;2023-12-22T00:23:31;99873.50;;;0.23;100.00
13420;BME280;6781;58.440;15.470;2023-12-22T00:26:01;99881.97;;;0.23;100.00
13420;BME280;6781;58.440;15.470;2023-12-22T00:28:27;99888.72;;;0.24;100.00
13420;BME280;6781;58.440;15.470;2023-12-22T00:30:55;99893.91;;;0.23;100.00
13420;BME280;6781;58.440;15.470;2023-12-22T00:33:21;99904.22;;;0.20;100.00
13420;BME280;6781;58.440;15.470;2023-12-22T00:35:48;99908.38;;;0.22;100.00
13420;BME280;6781;58.440;15.470;2023-12-22T00:38:15;99915.19;;;0.22;100.00
13420;BME280;6781;58.440;15.470;2023-12-22T00:40:43;99925.38;;;0.22;100.00
13420;BME280;6781;58.440;15.470;2023-12-22T00:43:10;99937.97;;;0.25;100.00
13420;BME280;6781;58.440;15.470;2023-12-22T00:45:37;99933.84;;;0.22;100.00
13420;BME280;6781;58.440;15.470;2023-12-22T00:48:04;99945.78;;;0.22;100.00
13420;BME280;6781;58.440;15.470;2023-12-22T00:50:31;99950.13;;;0.20;100.00
13420;BME280;6781;58.440;15.470;2023-12-22T00:52:57;99951.09;;;0.17;100.00
13420;BME280;6781;58.440;15.470;2023-12-22T00:55:24;99968.78;;;0.20;100.00
13420;BME280;6781;58.440;15.470;2023-12-22T00:57:52;99976.38;;;0.22;100.00
13420;BME280;6781;58.440;15.470;2023-12-22T01:00:19;99976.66;;;0.16;100.00
13420;BME280;6781;58.440;15.470;2023-12-22T01:02:46;99985.88;;;0.18;100.00
13420;BME280;6781;58.440;15.470;2023-12-22T01:05:13;99990.22;;;0.16;100.00
13420;BME280;6781;58.440;15.470;2023-12-22T01:07:39;99999.44;;;0.19;100.00
13420;BME280;6781;58.440;15.470;2023-12-22T01:10:07;100014.59;;;0.22;100.00
13420;BME280;6781;58.440;15.470;2023-12-22T01:12:34;100011.28;;;0.20;100.00
13420;BME280;6781;58.440;15.470;2023-12-22T01:15:02;100023.97;;;0.21;100.00
13420;BME280;6781;58.440;15.470;2023-12-22T01:17:29;100029.13;;;0.20;100.00
13420;BME280;6781;58.440;15.470;2023-12-22T01:19:56;100044.38;;;0.21;100.00
13420;BME280;6781;58.440;15.470;2023-12-22T01:22:23;100037.69;;;0.19;100.00
13420;BME280;6781;58.440;15.470;2023-12-22T01:24:49;100049.41;;;0.23;100.00
13420;BME280;6781;58.440;15.470;2023-12-22T01:27:16;100051.03;;;0.24;100.00
13420;BME280;6781;58.440;15.470;2023-12-22T01:29:43;100049.47;;;0.21;100.00
13420;BME280;6781;58.440;15.470;2023-12-22T01:32:11;100052.00;;;0.21;100.00
13420;BME280;6781;58.440;15.470;2023-12-22T01:34:38;100075.66;;;0.25;100.00
13420;BME280;6781;58.440;15.470;2023-12-22T01:37:05;100066.34;;;0.24;100.00
13420;BME280;6781;58.440;15.470;2023-12-22T01:39:32;100075.66;;;0.25;100.00
13420;BME280;6781;58.440;15.470;2023-12-22T01:41:59;100074.75;;;0.26;100.00
13420;BME280;6781;58.440;15.470;2023-12-22T01:44:25;100078.19;;;0.25;100.00
13420;BME280;6781;58.440;15.470;2023-12-22T01:46:52;100083.22;;;0.26;100.00
13420;BME280;6781;58.440;15.470;2023-12-22T01:49:20;100088.31;;;0.26;100.00
13420;BME280;6781;58.440;15.470;2023-12-22T01:51:48;100083.38;;;0.23;100.00
13420;BME280;6781;58.440;15.470;2023-12-22T01:54:17;100075.66;;;0.25;100.00
13420;BME280;6781;58.440;15.470;2023-12-22T01:56:44;100087.63;;;0.23;100.00
13420;BME280;6781;58.440;15.470;2023-12-22T01:59:10;100088.41;;;0.25;100.00
13420;BME280;6781;58.440;15.470;2023-12-22T02:01:38;100095.16;;;0.26;100.00
13420;BME280;6781;58.440;15.470;2023-12-22T02:04:05;100101.16;;;0.25;100.00
13420;BME280;6781;58.440;15.470;2023-12-22T02:06:34;100109.69;;;0.24;100.00
13420;BME280;6781;58.440;15.470;2023-12-22T02:09:02;100104.72;;;0.21;100.00
13420;BME280;6781;58.440;15.470;2023-12-22T02:11:29;100108.84;;;0.23;100.00
13420;BME280;6781;58.440;15.470;2023-12-22T02:13:56;100114.78;;;0.24;100.00
13420;BME280;6781;58.440;15.470;2023-12-22T02:16:25;100119.88;;;0.24;100.00
13420;BME280;6781;58.440;15.470;2023-12-22T02:18:52;100126.63;;;0.25;100.00
13420;BME280;6781;58.440;15.470;2023-12-22T02:21:21;100130.16;;;0.22;100.00
13420;BME280;6781;58.440;15.470;2023-12-22T02:23:49;100119.13;;;0.22;100.00
13420;BME280;6781;58.440;15.470;2023-12-22T02:26:17;100132.63;;;0.24;100.00
13420;BME280;6781;58.440;15.470;2023-12-22T02:28:48;100136.97;;;0.22;100.00
13420;BME280;6781;58.440;15.470;2023-12-22T02:31:16;100130.91;;;0.24;100.00
13420;BME280;6781;58.440;15.470;2023-12-22T02:33:43;100133.53;;;0.23;100.00
13420;BME280;6781;58.440;15.470;2023-12-22T02:36:11;100145.38;;;0.24;100.00
13420;BME280;6781;58.440;15.470;2023-12-22T02:38:39;100133.53;;;0.23;100.00
13420;BME280;6781;58.440;15.470;2023-12-22T02:41:08;100147.16;;;0.22;100.00
13420;BME280;6781;58.440;15.470;2023-12-22T02:43:34;100145.50;;;0.21;100.00
13420;BME280;6781;58.440;15.470;2023-12-22T02:46:02;100139.53;;;0.22;100.00
13420;BME280;6781;58.440;15.470;2023-12-22T02:48:28;100149.72;;;0.22;100.00
13420;BME280;6781;58.440;15.470;2023-12-22T02:50:55;100148.81;;;0.23;100.00
13420;BME280;6781;58.440;15.470;2023-12-22T02:53:22;100159.84;;;0.23;100.00
13420;BME280;6781;58.440;15.470;2023-12-22T02:55:49;100141.16;;;0.23;100.00
13420;BME280;6781;58.440;15.470;2023-12-22T02:58:17;100144.69;;;0.20;100.00
13420;BME280;6781;58.440;15.470;2023-12-22T03:00:44;100157.34;;;0.22;100.00
13420;BME280;6781;58.440;15.470;2023-12-22T03:05:46;100155.56;;;0.24;100.00
13420;BME280;6781;58.440;15.470;2023-12-22T03:08:13;100166.66;;;0.23;100.00
13420;BME280;6781;58.440;15.470;2023-12-22T03:10:40;100156.41;;;0.24;100.00
13420;BME280;6781;58.440;15.470;2023-12-22T03:13:07;100153.03;;;0.24;100.00
13420;BME280;6781;58.440;15.470;2023-12-22T03:15:35;100168.25;;;0.25;100.00
13420;BME280;6781;58.440;15.470;2023-12-22T03:18:01;100172.47;;;0.26;100.00
13420;BME280;6781;58.440;15.470;2023-12-22T03:20:28;100152.25;;;0.22;100.00
13420;BME280;6781;58.440;15.470;2023-12-22T03:22:55;100167.69;;;0.19;100.00
13420;BME280;6781;58.440;15.470;2023-12-22T03:25:22;100145.78;;;0.15;100.00
13420;BME280;6781;58.440;15.470;2023-12-22T03:27:50;100165.22;;;0.17;100.00
13420;BME280;6781;58.440;15.470;2023-12-22T03:30:17;100171.13;;;0.18;100.00
13420;BME280;6781;58.440;15.470;2023-12-22T03:32:45;100177.13;;;0.17;100.00
13420;BME280;6781;58.440;15.470;2023-12-22T03:35:11;100188.22;;;0.16;100.00
13420;BME280;6781;58.440;15.470;2023-12-22T03:37:38;100185.66;;;0.16;100.00
13420;BME280;6781;58.440;15.470;2023-12-22T03:40:05;100192.34;;;0.18;100.00
13420;BME280;6781;58.440;15.470;2023-12-22T03:42:32;100192.41;;;0.17;100.00
13420;BME280;6781;58.440;15.470;2023-12-22T03:44:59;100198.28;;;0.19;100.00
13420;BME280;6781;58.440;15.470;2023-12-22T03:47:26;100194.84;;;0.20;100.00
13420;BME280;6781;58.440;15.470;2023-12-22T03:49:54;100210.13;;;0.20;100.00
13420;BME280;6781;58.440;15.470;2023-12-22T03:52:21;100212.69;;;0.20;100.00
13420;BME280;6781;58.440;15.470;2023-12-22T03:54:48;100207.53;;;0.21;100.00
13420;BME280;6781;58.440;15.470;2023-12-22T03:57:14;100208.47;;;0.19;100.00
13420;BME280;6781;58.440;15.470;2023-12-22T03:59:41;100211.91;;;0.18;100.00
13420;BME280;6781;58.440;15.470;2023-12-22T04:02:08;100211.09;;;0.17;100.00
13420;BME280;6781;58.440;15.470;2023-12-22T04:04:37;100203.38;;;0.19;100.00
13420;BME280;6781;58.440;15.470;2023-12-22T04:07:05;100213.63;;;0.17;100.00
13420;BME280;6781;58.440;15.470;2023-12-22T04:09:32;100217.91;;;0.17;100.00
13420;BME280;6781;58.440;15.470;2023-12-22T04:11:59;100215.22;;;0.20;100.00
13420;BME280;6781;58.440;15.470;2023-12-22T04:14:26;100213.56;;;0.19;100.00
13420;BME280;6781;58.440;15.470;2023-12-22T04:16:52;100217.03;;;0.18;100.00
13420;BME280;6781;58.440;15.470;2023-12-22T04:19:19;100222.13;;;0.18;100.00
13420;BME280;6781;58.440;15.470;2023-12-22T04:21:46;100228.03;;;0.18;100.00
13420;BME280;6781;58.440;15.470;2023-12-22T04:24:14;100223.78;;;0.19;100.00
13420;BME280;6781;58.440;15.470;2023-12-22T04:26:41;100230.66;;;0.17;100.00
13420;BME280;6781;58.440;15.470;2023-12-22T04:29:08;100245.94;;;0.17;100.00
13420;BME280;6781;58.440;15.470;2023-12-22T04:31:34;100225.56;;;0.17;100.00
13420;BME280;6781;58.440;15.470;2023-12-22T04:34:01;100228.88;;;0.19;100.00
13420;BME280;6781;58.440;15.470;2023-12-22T04:36:28;100233.97;;;0.19;100.00
13420;BME280;6781;58.440;15.470;2023-12-22T04:38:55;100238.31;;;0.17;100.00
13420;BME280;6781;58.440;15.470;2023-12-22T04:41:23;100234.88;;;0.18;100.00
13420;BME280;6781;58.440;15.470;2023-12-22T04:43:50;100243.47;;;0.15;100.00
13420;BME280;6781;58.440;15.470;2023-12-22T04:46:16;100237.53;;;0.15;100.00
13420;BME280;6781;58.440;15.470;2023-12-22T04:48:43;100239.19;;;0.16;100.00
13420;BME280;6781;58.440;15.470;2023-12-22T04:51:10;100228.25;;;0.14;100.00
13420;BME280;6781;58.440;15.470;2023-12-22T04:53:37;100230.78;;;0.14;100.00
13420;BME280;6781;58.440;15.470;2023-12-22T04:56:05;100250.34;;;0.13;100.00
13420;BME280;6781;58.440;15.470;2023-12-22T04:58:34;100236.78;;;0.13;100.00
13420;BME280;6781;58.440;15.470;2023-12-22T05:01:00;100252.19;;;0.10;100.00
13420;BME280;6781;58.440;15.470;2023-12-22T05:03:27;100257.16;;;0.13;100.00
13420;BME280;6781;58.440;15.470;2023-12-22T05:05:54;100261.50;;;0.11;100.00
13420;BME280;6781;58.440;15.470;2023-12-22T05:08:21;100258.06;;;0.12;100.00
13420;BME280;6781;58.440;15.470;2023-12-22T05:10:47;100268.25;;;0.12;100.00
13420;BME280;6781;58.440;15.470;2023-12-22T05:13:14;100275.00;;;0.13;100.00
13420;BME280;6781;58.440;15.470;2023-12-22T05:15:42;100273.34;;;0.12;100.00
13420;BME280;6781;58.440;15.470;2023-12-22T05:18:09;100263.16;;;0.12;100.00
13420;BME280;6781;58.440;15.470;2023-12-22T05:20:36;100272.59;;;0.10;100.00
13420;BME280;6781;58.440;15.470;2023-12-22T05:23:03;100281.06;;;0.10;100.00
13420;BME280;6781;58.440;15.470;2023-12-22T05:25:30;100288.78;;;0.09;100.00
13420;BME280;6781;58.440;15.470;2023-12-22T05:27:56;100293.88;;;0.09;100.00
13420;BME280;6781;58.440;15.470;2023-12-22T05:30:23;100292.16;;;0.09;100.00
13420;BME280;6781;58.440;15.470;2023-12-22T05:32:51;100304.97;;;0.08;100.00
13420;BME280;6781;58.440;15.470;2023-12-22T05:35:19;100314.25;;;0.09;100.00
13420;BME280;6781;58.440;15.470;2023-12-22T05:37:46;100303.31;;;0.07;100.00
13420;BME280;6781;58.440;15.470;2023-12-22T05:40:13;100317.69;;;0.08;100.00
13420;BME280;6781;58.440;15.470;2023-12-22T05:42:40;100326.13;;;0.10;100.00
13420;BME280;6781;58.440;15.470;2023-12-22T05:45:07;100331.34;;;0.07;100.00
13420;BME280;6781;58.440;15.470;2023-12-22T05:47:36;100350.06;;;0.06;100.00
13420;BME280;6781;58.440;15.470;2023-12-22T05:50:04;100348.28;;;0.08;100.00
13420;BME280;6781;58.440;15.470;2023-12-22T05:52:31;100361.97;;;0.05;100.00
13420;BME280;6781;58.440;15.470;2023-12-22T05:54:58;100359.31;;;0.08;100.00
13420;BME280;6781;58.440;15.470;2023-12-22T05:57:25;100387.41;;;0.07;100.00
13420;BME280;6781;58.440;15.470;2023-12-22T05:59:52;100378.88;;;0.08;100.00
13420;BME280;6781;58.440;15.470;2023-12-22T06:02:19;100381.38;;;0.09;100.00
13420;BME280;6781;58.440;15.470;2023-12-22T06:04:45;100379.66;;;0.10;100.00
13420;BME280;6781;58.440;15.470;2023-12-22T06:07:14;100382.19;;;0.10;100.00
13420;BME280;6781;58.440;15.470;2023-12-22T06:09:40;100383.09;;;0.09;100.00
13420;BME280;6781;58.440;15.470;2023-12-22T06:12:07;100384.09;;;0.05;100.00
13420;BME280;6781;58.440;15.470;2023-12-22T06:14:34;100397.59;;;0.07;100.00
13420;BME280;6781;58.440;15.470;2023-12-22T06:17:01;100406.03;;;0.09;100.00
13420;BME280;6781;58.440;15.470;2023-12-22T06:19:28;100418.19;;;0.02;100.00
13420;BME280;6781;58.440;15.470;2023-12-22T06:21:55;100428.31;;;0.04;100.00
13420;BME280;6781;58.440;15.470;2023-12-22T06:24:24;100466.66;;;0.00;100.00
13420;BME280;6781;58.440;15.470;2023-12-22T06:26:50;100454.63;;;0.04;100.00
13420;BME280;6781;58.440;15.470;2023-12-22T06:29:17;100505.53;;;0.06;100.00
13420;BME280;6781;58.440;15.470;2023-12-22T06:31:44;100525.16;;;0.04;100.00
13420;BME280;6781;58.440;15.470;2023-12-22T06:34:15;100557.41;;;0.05;100.00
13420;BME280;6781;58.440;15.470;2023-12-22T06:36:42;100571.03;;;0.04;100.00
13420;BME280;6781;58.440;15.470;2023-12-22T06:39:09;100637.31;;;0.04;100.00
13420;BME280;6781;58.440;15.470;2023-12-22T06:41:37;100615.25;;;0.03;100.00
13420;BME280;6781;58.440;15.470;2023-12-22T06:44:04;100616.09;;;0.03;100.00
13420;BME280;6781;58.440;15.470;2023-12-22T06:46:31;100662.81;;;0.04;100.00
13420;BME280;6781;58.440;15.470;2023-12-22T06:48:58;100657.75;;;0.02;100.00
13420;BME280;6781;58.440;15.470;2023-12-22T06:51:26;100673.09;;;0.00;100.00
13420;BME280;6781;58.440;15.470;2023-12-22T06:53:53;100700.38;;;-0.02;100.00
13420;BME280;6781;58.440;15.470;2023-12-22T06:56:21;100713.88;;;0.00;100.00
13420;BME280;6781;58.440;15.470;2023-12-22T06:58:51;100725.75;;;0.02;100.00
13420;BME280;6781;58.440;15.470;2023-12-22T07:01:18;100745.38;;;-0.01;100.00
13420;BME280;6781;58.440;15.470;2023-12-22T07:03:46;100759.00;;;-0.02;100.00
13420;BME280;6781;58.440;15.470;2023-12-22T07:06:13;100764.13;;;-0.02;100.00
13420;BME280;6781;58.440;15.470;2023-12-22T07:08:40;100780.16;;;0.00;100.00
13420;BME280;6781;58.440;15.470;2023-12-22T07:11:08;100794.69;;;-0.02;100.00
13420;BME280;6781;58.440;15.470;2023-12-22T07:13:34;100815.84;;;0.00;100.00
13420;BME280;6781;58.440;15.470;2023-12-22T07:16:03;100825.34;;;-0.03;100.00
13420;BME280;6781;58.440;15.470;2023-12-22T07:18:29;100843.13;;;-0.02;100.00
13420;BME280;6781;58.440;15.470;2023-12-22T07:20:56;100857.53;;;-0.01;100.00
13420;BME280;6781;58.440;15.470;2023-12-22T07:23:23;100893.22;;;-0.01;100.00
13420;BME280;6781;58.440;15.470;2023-12-22T07:25:50;100895.78;;;-0.01;100.00
13420;BME280;6781;58.440;15.470;2023-12-22T07:28:17;100919.47;;;0.02;100.00
13420;BME280;6781;58.440;15.470;2023-12-22T07:30:44;100934.00;;;-0.01;100.00
13420;BME280;6781;58.440;15.470;2023-12-22T07:33:12;100912.69;;;0.00;100.00
13420;BME280;6781;58.440;15.470;2023-12-22T07:35:38;100950.94;;;0.00;100.00
13420;BME280;6781;58.440;15.470;2023-12-22T07:38:05;100968.78;;;0.00;100.00
13420;BME280;6781;58.440;15.470;2023-12-22T07:40:32;100978.97;;;0.00;100.00
13420;BME280;6781;58.440;15.470;2023-12-22T07:42:59;100977.34;;;-0.01;100.00
13420;BME280;6781;58.440;15.470;2023-12-22T07:45:26;101005.38;;;-0.01;100.00
13420;BME280;6781;58.440;15.470;2023-12-22T07:47:53;100982.44;;;-0.01;100.00
13420;BME280;6781;58.440;15.470;2023-12-22T07:50:22;100992.63;;;-0.01;100.00
13420;BME280;6781;58.440;15.470;2023-12-22T07:52:48;100993.38;;;0.02;100.00
13420;BME280;6781;58.440;15.470;2023-12-22T07:55:15;101002.06;;;-0.04;100.00
13420;BME280;6781;58.440;15.470;2023-12-22T07:57:42;101011.34;;;-0.02;100.00
13420;BME280;6781;58.440;15.470;2023-12-22T08:00:09;101013.91;;;-0.02;100.00
13420;BME280;6781;58.440;15.470;2023-12-22T08:02:36;101022.38;;;-0.01;100.00
13420;BME280;6781;58.440;15.470;2023-12-22T08:05:03;101024.97;;;-0.03;100.00
13420;BME280;6781;58.440;15.470;2023-12-22T08:07:31;101030.78;;;0.01;100.00
13420;BME280;6781;58.440;15.470;2023-12-22T08:09:58;101040.22;;;-0.01;100.00
13420;BME280;6781;58.440;15.470;2023-12-22T08:12:25;101044.56;;;-0.05;100.00
13420;BME280;6781;58.440;15.470;2023-12-22T08:14:53;101038.59;;;-0.04;100.00
13420;BME280;6781;58.440;15.470;2023-12-22T08:17:20;101057.31;;;-0.05;100.00
13420;BME280;6781;58.440;15.470;2023-12-22T08:19:46;101046.34;;;-0.07;100.00
13420;BME280;6781;58.440;15.470;2023-12-22T08:22:13;101056.44;;;-0.04;100.00
13420;BME280;6781;58.440;15.470;2023-12-22T08:24:42;101071.78;;;-0.05;100.00
13420;BME280;6781;58.440;15.470;2023-12-22T08:27:09;101084.47;;;-0.04;100.00
13420;BME280;6781;58.440;15.470;2023-12-22T08:29:35;101080.22;;;-0.03;100.00
13420;BME280;6781;58.440;15.470;2023-12-22T08:32:02;101091.25;;;-0.03;100.00
13420;BME280;6781;58.440;15.470;2023-12-22T08:34:29;101089.53;;;-0.02;100.00
13420;BME280;6781;58.440;15.470;2023-12-22T08:36:56;101084.47;;;-0.04;100.00
13420;BME280;6781;58.440;15.470;2023-12-22T08:39:23;101087.03;;;-0.04;100.00
13420;BME280;6781;58.440;15.470;2023-12-22T08:41:52;101091.25;;;-0.03;100.00
13420;BME280;6781;58.440;15.470;2023-12-22T08:44:19;101093.78;;;-0.03;100.00
13420;BME280;6781;58.440;15.470;2023-12-22T08:46:46;101091.25;;;-0.03;100.00
13420;BME280;6781;58.440;15.470;2023-12-22T08:49:13;101094.59;;;-0.01;100.00
13420;BME280;6781;58.440;15.470;2023-12-22T08:51:39;101092.13;;;-0.04;100.00
13420;BME280;6781;58.440;15.470;2023-12-22T08:54:06;101093.00;;;-0.05;100.00
13420;BME280;6781;58.440;15.470;2023-12-22T08:56:33;101091.34;;;-0.06;100.00
13420;BME280;6781;58.440;15.470;2023-12-22T08:59:03;101096.34;;;-0.03;100.00
13420;BME280;6781;58.440;15.470;2023-12-22T09:01:29;101101.44;;;-0.03;100.00
13420;BME280;6781;58.440;15.470;2023-12-22T09:03:56;101096.34;;;-0.03;100.00
13420;BME280;6781;58.440;15.470;2023-12-22T09:06:23;101103.28;;;-0.08;100.00
13420;BME280;6781;58.440;15.470;2023-12-22T09:08:51;101119.25;;;-0.01;100.00
13420;BME280;6781;58.440;15.470;2023-12-22T09:11:18;101101.59;;;-0.09;100.00
13420;BME280;6781;58.440;15.470;2023-12-22T09:13:45;101126.94;;;-0.03;100.00
13420;BME280;6781;58.440;15.470;2023-12-22T09:16:14;101110.88;;;-0.06;100.00
13420;BME280;6781;58.440;15.470;2023-12-22T09:18:47;101116.09;;;-0.11;100.00
13420;BME280;6781;58.440;15.470;2023-12-22T09:21:13;101127.94;;;-0.08;100.00
13420;BME280;6781;58.440;15.470;2023-12-22T09:23:40;101127.09;;;-0.09;100.00
13420;BME280;6781;58.440;15.470;2023-12-22T09:26:09;101130.59;;;-0.13;100.00
13420;BME280;6781;58.440;15.470;2023-12-22T09:28:36;101127.19;;;-0.12;100.00
13420;BME280;6781;58.440;15.470;2023-12-22T09:31:03;101135.69;;;-0.13;100.00
13420;BME280;6781;58.440;15.470;2023-12-22T09:33:32;101139.84;;;-0.09;100.00
13420;BME280;6781;58.440;15.470;2023-12-22T09:35:59;101139.03;;;-0.11;100.00
13420;BME280;6781;58.440;15.470;2023-12-22T09:38:25;101134.91;;;-0.15;100.00
13420;BME280;6781;58.440;15.470;2023-12-22T09:40:53;101146.81;;;-0.15;100.00
13420;BME280;6781;58.440;15.470;2023-12-22T09:43:21;101150.19;;;-0.15;100.00
13420;BME280;6781;58.440;15.470;2023-12-22T09:45:49;101150.16;;;-0.13;100.00
13420;BME280;6781;58.440;15.470;2023-12-22T09:48:17;101157.84;;;-0.15;100.00
13420;BME280;6781;58.440;15.470;2023-12-22T09:50:47;101146.13;;;-0.22;100.00
13420;BME280;6781;58.440;15.470;2023-12-22T09:53:13;101146.06;;;-0.19;100.00
13420;BME280;6781;58.440;15.470;2023-12-22T09:55:42;101154.50;;;-0.17;100.00
13420;BME280;6781;58.440;15.470;2023-12-22T09:58:11;101154.66;;;-0.23;100.00
13420;BME280;6781;58.440;15.470;2023-12-22T10:00:39;101142.84;;;-0.27;100.00
13420;BME280;6781;58.440;15.470;2023-12-22T10:03:06;101151.22;;;-0.22;100.00
13420;BME280;6781;58.440;15.470;2023-12-22T10:05:33;101157.84;;;-0.15;100.00
13420;BME280;6781;58.440;15.470;2023-12-22T10:08:02;101131.78;;;-0.26;100.00
13420;BME280;6781;58.440;15.470;2023-12-22T10:10:29;101139.34;;;-0.23;100.00
13420;BME280;6781;58.440;15.470;2023-12-22T10:12:56;101128.38;;;-0.25;100.00
13420;BME280;6781;58.440;15.470;2023-12-22T10:15:23;101134.19;;;-0.20;100.00
13420;BME280;6781;58.440;15.470;2023-12-22T10:17:50;101134.94;;;-0.16;100.00
13420;BME280;6781;58.440;15.470;2023-12-22T10:20:17;101123.22;;;-0.23;100.00
13420;BME280;6781;58.440;15.470;2023-12-22T10:22:44;101134.19;;;-0.20;100.00
13420;BME280;6781;58.440;15.470;2023-12-22T10:25:13;101124.06;;;-0.23;100.00
13420;BME280;6781;58.440;15.470;2023-12-22T10:27:41;101129.09;;;-0.20;100.00
13420;BME280;6781;58.440;15.470;2023-12-22T10:30:08;101103.59;;;-0.20;100.00
13420;BME280;6781;58.440;15.470;2023-12-22T10:32:37;101103.66;;;-0.21;100.00
13420;BME280;6781;58.440;15.470;2023-12-22T10:35:05;101105.19;;;-0.16;100.00
13420;BME280;6781;58.440;15.470;2023-12-22T10:37:33;101103.59;;;-0.20;100.00
13420;BME280;6781;58.440;15.470;2023-12-22T10:40:03;101070.59;;;-0.24;100.00
13420;BME280;6781;58.440;15.470;2023-12-22T10:42:32;101074.78;;;-0.22;100.00
13420;BME280;6781;58.440;15.470;2023-12-22T10:44:58;101073.63;;;-0.10;100.00
13420;BME280;6781;58.440;15.470;2023-12-22T10:47:25;101061.06;;;-0.18;100.00
13420;BME280;6781;58.440;15.470;2023-12-22T10:49:52;101054.19;;;-0.14;100.00
13420;BME280;6781;58.440;15.470;2023-12-22T10:52:19;101049.06;;;-0.13;100.00
13420;BME280;6781;58.440;15.470;2023-12-22T10:54:47;101017.75;;;-0.18;100.00
13420;BME280;6781;58.440;15.470;2023-12-22T10:57:17;101015.13;;;-0.15;100.00
13420;BME280;6781;58.440;15.470;2023-12-22T10:59:46;100976.50;;;-0.30;100.00
13420;BME280;6781;58.440;15.470;2023-12-22T11:02:15;100969.69;;;-0.30;100.00
13420;BME280;6781;58.440;15.470;2023-12-22T11:04:42;100976.28;;;-0.23;100.00
13420;BME280;6781;58.440;15.470;2023-12-22T11:07:11;100958.41;;;-0.21;100.00
13420;BME280;6781;58.440;15.470;2023-12-22T11:09:38;100951.50;;;-0.18;100.00
13420;BME280;6781;58.440;15.470;2023-12-22T11:12:07;100960.47;;;-0.05;100.00
13420;BME280;6781;58.440;15.470;2023-12-22T11:14:34;100938.41;;;-0.06;100.00
13420;BME280;6781;58.440;15.470;2023-12-22T11:17:04;100910.72;;;-0.18;100.00
13420;BME280;6781;58.440;15.470;2023-12-22T11:19:31;100886.13;;;-0.19;100.00
13420;BME280;6781;58.440;15.470;2023-12-22T11:22:00;100877.69;;;-0.21;100.00
13420;BME280;6781;58.440;15.470;2023-12-22T11:24:28;100863.34;;;-0.23;100.00
13420;BME280;6781;58.440;15.470;2023-12-22T11:26:58;100918.34;;;-0.16;100.00
13420;BME280;6781;58.440;15.470;2023-12-22T11:29:26;100904.72;;;-0.15;100.00
13420;BME280;6781;58.440;15.470;2023-12-22T11:31:52;100862.59;;;-0.27;100.00
13420;BME280;6781;58.440;15.470;2023-12-22T11:34:22;100855.09;;;-0.31;100.00
13420;BME280;6781;58.440;15.470;2023-12-22T11:36:50;100826.91;;;-0.27;100.00
13420;BME280;6781;58.440;15.470;2023-12-22T11:39:17;100824.03;;;-0.16;100.00
13420;BME280;6781;58.440;15.470;2023-12-22T11:41:44;100806.53;;;-0.27;100.00
13420;BME280;6781;58.440;15.470;2023-12-22T11:44:13;100788.66;;;-0.25;100.00
13420;BME280;6781;58.440;15.470;2023-12-22T11:46:40;100757.53;;;-0.35;100.00
13420;BME280;6781;58.440;15.470;2023-12-22T11:49:07;100750.69;;;-0.33;100.00
13420;BME280;6781;58.440;15.470;2023-12-22T11:51:35;100734.56;;;-0.34;100.00
13420;BME280;6781;58.440;15.470;2023-12-22T11:54:02;100714.88;;;-0.28;100.00
13420;BME280;6781;58.440;15.470;2023-12-22T11:56:29;100699.50;;;-0.25;100.00
13420;BME280;6781;58.440;15.470;2023-12-22T11:58:56;100671.72;;;-0.33;100.00
13420;BME280;6781;58.440;15.470;2023-12-22T12:01:24;100653.97;;;-0.36;100.00
13420;BME280;6781;58.440;15.470;2023-12-22T12:03:53;100613.53;;;-0.45;100.00
13420;BME280;6781;58.440;15.470;2023-12-22T12:06:30;100612.34;;;-0.35;100.00
13420;BME280;6781;58.440;15.470;2023-12-22T12:09:00;100604.81;;;-0.38;100.00
13420;BME280;6781;58.440;15.470;2023-12-22T12:14:13;100538.22;;;-0.52;100.00
13420;BME280;6781;58.440;15.470;2023-12-22T12:16:40;100511.88;;;-0.51;100.00
13420;BME280;6781;58.440;15.470;2023-12-22T12:19:08;100502.56;;;-0.52;100.00
13420;BME280;6781;58.440;15.470;2023-12-22T12:21:35;100500.03;;;-0.52;100.00
13420;BME280;6781;58.440;15.470;2023-12-22T12:24:04;100474.88;;;-0.61;100.00
13420;BME280;6781;58.440;15.470;2023-12-22T12:26:31;100444.22;;;-0.58;100.00
13420;BME280;6781;58.440;15.470;2023-12-22T12:29:00;100432.38;;;-0.59;100.00
13420;BME280;6781;58.440;15.470;2023-12-22T12:31:35;100418.88;;;-0.61;100.00
13420;BME280;6781;58.440;15.470;2023-12-22T12:34:02;100406.81;;;-0.56;100.00
13420;BME280;6781;58.440;15.470;2023-12-22T12:36:30;100405.91;;;-0.55;100.00
13420;BME280;6781;58.440;15.470;2023-12-22T12:38:59;100387.22;;;-0.54;100.00
13420;BME280;6781;58.440;15.470;2023-12-22T12:41:30;100375.31;;;-0.54;100.00
13420;BME280;6781;58.440;15.470;2023-12-22T12:43:58;100343.97;;;-0.56;100.00
13420;BME280;6781;58.440;15.470;2023-12-22T12:46:31;100333.75;;;-0.54;100.00
13420;BME280;6781;58.440;15.470;2023-12-22T12:49:02;100308.38;;;-0.57;100.00
13420;BME280;6781;58.440;15.470;2023-12-22T12:51:29;100288.25;;;-0.63;100.00